createdAt,value
2023-03-04T00:00:46.353Z,2.90
2023-03-04T00:03:15.547Z,2.90
2023-03-04T00:05:43.705Z,2.90
2023-03-04T00:08:12.006Z,2.90
2023-03-04T00:10:39.991Z,2.90
2023-03-04T00:13:07.987Z,2.90
2023-03-04T00:15:37.331Z,2.90
2023-03-04T00:18:05.566Z,3.00
2023-03-04T00:20:33.544Z,2.90
2023-03-04T00:23:01.499Z,3.00
2023-03-04T00:25:29.520Z,2.90
2023-03-04T00:27:58.457Z,2.90
2023-03-04T00:30:26.881Z,3.00
2023-03-04T00:32:56.207Z,2.90
2023-03-04T00:35:24.173Z,3.00
2023-03-04T00:37:52.170Z,3.00
2023-03-04T00:40:20.229Z,3.00
2023-03-04T00:42:48.202Z,3.00
2023-03-04T00:45:16.176Z,3.00
2023-03-04T00:47:44.152Z,3.00
2023-03-04T00:50:14.038Z,3.00
2023-03-04T00:52:42.095Z,3.00
2023-03-04T00:55:10.906Z,3.00
2023-03-04T00:57:38.881Z,3.00
2023-03-04T01:00:08.159Z,3.00
2023-03-04T01:02:36.198Z,3.00
2023-03-04T01:05:04.283Z,3.00
2023-03-04T01:07:34.125Z,3.00
2023-03-04T01:10:02.179Z,3.00
2023-03-04T01:12:30.269Z,3.00
2023-03-04T01:14:58.266Z,3.00
2023-03-04T01:17:26.265Z,3.00
2023-03-04T01:19:54.238Z,3.00
2023-03-04T01:22:22.235Z,3.00
2023-03-04T01:24:51.652Z,3.00
2023-03-04T01:27:19.626Z,3.10
2023-03-04T01:29:47.639Z,3.00
2023-03-04T01:32:15.678Z,3.00
2023-03-04T01:34:43.937Z,3.00
2023-03-04T01:37:13.582Z,3.10
2023-03-04T01:39:41.796Z,3.10
2023-03-04T01:42:19.209Z,3.00
2023-03-04T01:44:48.347Z,3.00
2023-03-04T01:47:17.226Z,3.00
2023-03-04T01:49:45.432Z,3.00
2023-03-04T01:52:14.896Z,3.00
2023-03-04T01:54:42.938Z,3.00
2023-03-04T01:57:18.655Z,3.00
2023-03-04T01:59:47.534Z,3.00
2023-03-04T02:02:16.217Z,3.00
2023-03-04T02:04:44.417Z,3.00
2023-03-04T02:07:12.496Z,3.10
2023-03-04T02:09:40.468Z,3.00
2023-03-04T02:12:08.468Z,3.00
2023-03-04T02:14:37.836Z,3.00
2023-03-04T02:17:11.292Z,3.00
2023-03-04T02:19:49.390Z,3.00
2023-03-04T02:22:17.457Z,3.00
2023-03-04T02:24:50.955Z,3.00
2023-03-04T02:27:22.013Z,3.10
2023-03-04T02:29:50.349Z,3.00
2023-03-04T02:32:18.455Z,3.00
2023-03-04T02:34:49.570Z,3.00
2023-03-04T02:37:19.611Z,3.10
2023-03-04T02:39:49.755Z,3.10
2023-03-04T02:42:19.353Z,3.10
2023-03-04T02:44:49.338Z,3.10
2023-03-04T02:47:18.936Z,3.00
2023-03-04T02:49:47.557Z,3.00
2023-03-04T02:52:19.105Z,3.00
2023-03-04T02:54:47.066Z,3.00
2023-03-04T02:57:16.229Z,3.10
2023-03-04T02:59:44.641Z,3.10
2023-03-04T03:02:14.060Z,3.00
2023-03-04T03:04:42.609Z,3.00
2023-03-04T03:07:10.751Z,3.00
2023-03-04T03:09:38.732Z,3.00
2023-03-04T03:12:06.936Z,3.00
2023-03-04T03:14:35.027Z,3.00
2023-03-04T03:17:02.999Z,3.00
2023-03-04T03:19:32.414Z,3.00
2023-03-04T03:22:00.393Z,3.00
2023-03-04T03:24:28.481Z,3.00
2023-03-04T03:26:56.459Z,3.00
2023-03-04T03:29:24.558Z,3.00
2023-03-04T03:31:52.592Z,3.10
2023-03-04T03:34:20.599Z,3.10
2023-03-04T03:36:49.989Z,3.10
2023-03-04T03:39:17.971Z,3.10
2023-03-04T03:41:46.004Z,3.00
2023-03-04T03:44:13.976Z,3.10
2023-03-04T03:46:41.940Z,3.10
2023-03-04T03:49:09.943Z,3.10
2023-03-04T03:51:38.013Z,3.10
2023-03-04T03:54:07.372Z,3.10
2023-03-04T03:56:35.344Z,3.10
2023-03-04T03:59:03.296Z,3.10
2023-03-04T04:01:31.292Z,3.10
2023-03-04T04:03:59.262Z,3.10
2023-03-04T04:06:27.307Z,3.00
2023-03-04T04:08:55.272Z,3.10
2023-03-04T04:11:24.615Z,3.10
2023-03-04T04:13:52.613Z,3.10
2023-03-04T04:16:20.660Z,3.10
2023-03-04T04:18:48.687Z,3.10
2023-03-04T04:21:16.709Z,3.10
2023-03-04T04:23:44.731Z,3.10
2023-03-04T04:26:12.793Z,3.10
2023-03-04T04:28:42.105Z,3.10
2023-03-04T04:31:10.586Z,3.10
2023-03-04T04:33:38.987Z,3.10
2023-03-04T04:36:07.496Z,3.10
2023-03-04T04:38:35.490Z,3.10
2023-03-04T04:41:03.489Z,3.00
2023-03-04T04:43:31.496Z,3.00
2023-03-04T04:46:02.067Z,3.00
2023-03-04T04:48:30.065Z,3.00
2023-03-04T04:50:58.118Z,3.10
2023-03-04T04:53:26.161Z,3.10
2023-03-04T04:55:54.203Z,3.00
2023-03-04T04:58:22.161Z,3.00
2023-03-04T05:00:50.172Z,3.00
2023-03-04T05:03:21.420Z,3.10
2023-03-04T05:05:50.722Z,3.10
2023-03-04T05:08:18.715Z,3.10
2023-03-04T05:10:46.722Z,3.10
2023-03-04T05:13:14.731Z,3.10
2023-03-04T05:15:42.770Z,3.20
2023-03-04T05:18:10.833Z,3.20
2023-03-04T05:20:40.295Z,3.20
2023-03-04T05:23:08.253Z,3.20
2023-03-04T05:25:36.538Z,3.20
2023-03-04T05:28:04.991Z,3.20
2023-03-04T05:30:33.018Z,3.20
2023-03-04T05:33:01.024Z,3.20
2023-03-04T05:35:29.244Z,3.20
2023-03-04T05:37:58.654Z,3.20
2023-03-04T05:40:26.928Z,3.20
2023-03-04T05:42:55.014Z,3.20
2023-03-04T05:45:23.009Z,3.10
2023-03-04T05:47:51.001Z,3.10
2023-03-04T05:50:19.550Z,3.20
2023-03-04T05:52:47.550Z,3.20
2023-03-04T05:55:17.434Z,3.20
2023-03-04T05:57:46.008Z,3.20
2023-03-04T06:00:15.510Z,3.20
2023-03-04T06:02:45.039Z,3.20
2023-03-04T06:05:17.112Z,3.30
2023-03-04T06:07:46.114Z,3.30
2023-03-04T06:10:17.978Z,3.30
2023-03-04T06:12:45.989Z,3.30
2023-03-04T06:15:14.480Z,3.30
2023-03-04T06:17:43.426Z,3.30
2023-03-04T06:20:13.106Z,3.30
2023-03-04T06:22:41.186Z,3.30
2023-03-04T06:25:09.911Z,3.40
2023-03-04T06:27:39.276Z,3.30
2023-03-04T06:30:09.169Z,3.40
2023-03-04T06:32:37.142Z,3.40
2023-03-04T06:35:05.719Z,3.40
2023-03-04T06:37:33.906Z,3.50
2023-03-04T06:40:02.049Z,3.40
2023-03-04T06:42:30.111Z,3.50
2023-03-04T06:44:59.480Z,3.40
2023-03-04T06:47:27.517Z,3.40
2023-03-04T06:49:55.509Z,3.50
2023-03-04T06:52:24.386Z,3.50
2023-03-04T06:54:52.383Z,3.50
2023-03-04T06:57:20.376Z,3.50
2023-03-04T06:59:48.685Z,3.50
2023-03-04T07:02:18.061Z,3.50
2023-03-04T07:04:46.185Z,3.50
2023-03-04T07:07:14.290Z,3.50
2023-03-04T07:09:42.409Z,3.50
2023-03-04T07:12:10.461Z,3.50
2023-03-04T07:14:38.474Z,3.50
2023-03-04T07:17:06.538Z,3.50
2023-03-04T07:19:35.956Z,3.50
2023-03-04T07:22:03.942Z,3.50
2023-03-04T07:24:32.023Z,3.60
2023-03-04T07:27:00.010Z,3.60
2023-03-04T07:29:28.058Z,3.60
2023-03-04T07:31:56.520Z,3.60
2023-03-04T07:34:24.639Z,3.60
2023-03-04T07:36:54.016Z,3.60
2023-03-04T07:39:21.998Z,3.60
2023-03-04T07:41:49.958Z,3.60
2023-03-04T07:44:17.973Z,3.60
2023-03-04T07:46:45.968Z,3.60
2023-03-04T07:49:14.762Z,3.60
2023-03-04T07:51:42.728Z,3.60
2023-03-04T07:54:12.134Z,3.60
2023-03-04T07:56:40.173Z,3.70
2023-03-04T07:59:08.186Z,3.70
2023-03-04T08:01:38.310Z,3.60
2023-03-04T08:04:08.314Z,3.70
2023-03-04T08:06:36.868Z,3.60
2023-03-04T08:09:07.925Z,3.60
2023-03-04T08:11:38.795Z,3.60
2023-03-04T08:14:06.910Z,3.60
2023-03-04T08:16:34.920Z,3.70
2023-03-04T08:19:04.332Z,3.70
2023-03-04T08:21:33.246Z,3.80
2023-03-04T08:24:04.271Z,3.90
2023-03-04T08:26:35.008Z,3.90
2023-03-04T08:29:06.867Z,4.00
2023-03-04T08:31:34.995Z,4.10
2023-03-04T08:34:03.972Z,4.10
2023-03-04T08:36:31.971Z,4.20
2023-03-04T08:38:59.955Z,4.20
2023-03-04T08:41:27.970Z,4.30
2023-03-04T08:43:56.000Z,4.30
2023-03-04T08:46:25.448Z,4.30
2023-03-04T08:48:53.564Z,4.40
2023-03-04T08:51:21.630Z,4.40
2023-03-04T08:53:49.878Z,4.40
2023-03-04T08:56:18.431Z,4.40
2023-03-04T08:58:46.478Z,4.40
2023-03-04T09:01:15.855Z,4.40
2023-03-04T09:03:45.407Z,4.40
2023-03-04T09:06:16.807Z,4.40
2023-03-04T09:08:44.899Z,4.40
2023-03-04T09:11:13.617Z,4.40
2023-03-04T09:13:41.849Z,4.50
2023-03-04T09:16:11.885Z,4.50
2023-03-04T09:18:40.484Z,4.50
2023-03-04T09:21:11.323Z,4.60
2023-03-04T09:23:39.408Z,4.60
2023-03-04T09:26:16.313Z,4.70
2023-03-04T09:28:44.431Z,4.80
2023-03-04T09:31:14.003Z,4.80
2023-03-04T09:33:43.165Z,4.90
2023-03-04T09:36:14.474Z,4.90
2023-03-04T09:38:44.406Z,4.90
2023-03-04T09:41:17.410Z,5.00
2023-03-04T09:43:47.727Z,5.00
2023-03-04T09:46:18.497Z,5.00
2023-03-04T09:48:50.035Z,5.10
2023-03-04T09:51:29.971Z,5.20
2023-03-04T09:54:08.059Z,5.30
2023-03-04T09:56:38.419Z,5.50
2023-03-04T09:59:17.275Z,5.50
2023-03-04T10:01:51.016Z,5.70
2023-03-04T10:04:27.369Z,5.80
2023-03-04T10:06:57.531Z,5.90
2023-03-04T10:09:28.943Z,5.90
2023-03-04T10:12:02.920Z,6.00
2023-03-04T10:14:40.017Z,6.00
2023-03-04T10:17:15.238Z,5.90
2023-03-04T10:19:56.492Z,5.80
2023-03-04T10:22:32.086Z,5.80
2023-03-04T10:25:03.395Z,5.70
2023-03-04T10:27:32.736Z,5.60
2023-03-04T10:30:02.188Z,5.70
2023-03-04T10:32:30.304Z,5.70
2023-03-04T10:34:58.340Z,5.70
2023-03-04T10:37:46.225Z,5.80
2023-03-04T10:40:21.756Z,5.80
2023-03-04T10:42:50.773Z,5.80
2023-03-04T10:45:24.599Z,5.90
2023-03-04T10:47:56.409Z,5.90
2023-03-04T10:50:27.024Z,6.00
2023-03-04T10:52:57.910Z,6.10
2023-03-04T10:55:28.753Z,6.20
2023-03-04T10:58:03.014Z,6.20
2023-03-04T11:00:33.358Z,6.20
2023-03-04T11:03:25.914Z,6.20
2023-03-04T11:06:16.303Z,6.20
2023-03-04T11:08:47.525Z,6.20
2023-03-04T11:11:27.096Z,6.30
2023-03-04T11:13:59.395Z,6.20
2023-03-04T11:16:30.964Z,6.30
2023-03-04T11:19:04.197Z,6.20
2023-03-04T11:21:40.016Z,6.20
2023-03-04T11:24:27.449Z,6.20
2023-03-04T11:27:01.626Z,6.20
2023-03-04T11:29:36.397Z,6.20
2023-03-04T11:32:11.006Z,6.20
2023-03-04T11:34:43.490Z,6.20
2023-03-04T11:37:18.113Z,6.20
2023-03-04T11:39:50.761Z,6.30
2023-03-04T11:42:27.626Z,6.30
2023-03-04T11:44:56.580Z,6.30
2023-03-04T11:47:45.167Z,6.30
2023-03-04T11:50:36.138Z,6.30
2023-03-04T11:53:28.910Z,6.40
2023-03-04T11:56:11.719Z,6.40
2023-03-04T11:59:18.441Z,6.40
2023-03-04T12:01:56.849Z,6.40
2023-03-04T12:04:44.756Z,6.40
2023-03-04T12:07:34.002Z,6.40
2023-03-04T12:10:16.179Z,6.40
2023-03-04T12:13:08.040Z,6.30
2023-03-04T12:15:49.713Z,6.30
2023-03-04T12:18:31.242Z,6.30
2023-03-04T12:21:11.580Z,6.30
2023-03-04T12:23:55.340Z,6.30
2023-03-04T12:26:34.101Z,6.30
2023-03-04T12:29:09.742Z,6.30
2023-03-04T12:31:40.175Z,6.40
2023-03-04T12:34:34.586Z,6.40
2023-03-04T12:37:22.627Z,6.40
2023-03-04T12:40:07.213Z,6.50
2023-03-04T12:42:44.104Z,6.50
2023-03-04T12:45:22.169Z,6.50
2023-03-04T12:47:59.483Z,6.60
2023-03-04T12:50:37.331Z,6.70
2023-03-04T12:53:15.173Z,6.70
2023-03-04T12:55:45.741Z,6.80
2023-03-04T12:58:18.952Z,6.80
2023-03-04T13:00:57.830Z,6.90
2023-03-04T13:03:34.972Z,6.80
2023-03-04T13:06:24.968Z,6.90
2023-03-04T13:09:00.657Z,6.90
2023-03-04T13:11:47.139Z,6.90
2023-03-04T13:14:35.037Z,6.90
2023-03-04T13:17:34.706Z,6.90
2023-03-04T13:20:20.298Z,6.90
2023-03-04T13:22:54.671Z,6.90
2023-03-04T13:25:44.099Z,6.80
2023-03-04T13:28:30.576Z,6.80
2023-03-04T13:31:18.715Z,6.80
2023-03-04T13:33:57.405Z,6.80
2023-03-04T13:36:59.090Z,6.80
2023-03-04T13:39:32.737Z,6.90
2023-03-04T13:42:01.044Z,6.90
2023-03-04T13:45:02.789Z,6.80
2023-03-04T13:47:44.413Z,6.80
2023-03-04T13:50:31.665Z,6.80
2023-03-04T13:53:21.140Z,6.80
2023-03-04T13:56:08.395Z,6.80
2023-03-04T13:58:37.700Z,6.80
2023-03-04T14:01:07.325Z,6.80
2023-03-04T14:03:36.653Z,6.80
2023-03-04T14:06:16.600Z,6.80
2023-03-04T14:08:44.621Z,6.80
2023-03-04T14:11:16.465Z,6.70
2023-03-04T14:13:45.210Z,6.70
2023-03-04T14:16:13.595Z,6.80
2023-03-04T14:18:41.914Z,6.70
2023-03-04T14:21:16.830Z,6.70
2023-03-04T14:23:44.803Z,6.70
2023-03-04T14:26:15.239Z,6.60
2023-03-04T14:28:48.418Z,6.60
2023-03-04T14:31:21.600Z,6.60
2023-03-04T14:33:51.729Z,6.50
2023-03-04T14:36:23.767Z,6.60
2023-03-04T14:38:55.020Z,6.50
2023-03-04T14:41:29.013Z,6.50
2023-03-04T14:44:06.533Z,6.50
2023-03-04T14:46:40.269Z,6.50
2023-03-04T14:49:11.969Z,6.60
2023-03-04T14:51:45.777Z,6.50
2023-03-04T14:54:30.326Z,6.50
2023-03-04T14:56:59.489Z,6.50
2023-03-04T14:59:35.248Z,6.50
2023-03-04T15:02:21.383Z,6.50
2023-03-04T15:04:51.140Z,6.50
2023-03-04T15:07:23.156Z,6.50
2023-03-04T15:09:53.453Z,6.50
2023-03-04T15:12:27.641Z,6.40
2023-03-04T15:14:57.266Z,6.40
2023-03-04T15:17:29.186Z,6.40
2023-03-04T15:20:02.147Z,6.30
2023-03-04T15:22:31.559Z,6.30
2023-03-04T15:24:59.886Z,6.30
2023-03-04T15:27:32.185Z,6.40
2023-03-04T15:30:02.200Z,6.30
2023-03-04T15:32:31.079Z,6.30
2023-03-04T15:35:00.382Z,6.30
2023-03-04T15:37:31.055Z,6.30
2023-03-04T15:39:59.859Z,6.30
2023-03-04T15:42:28.984Z,6.30
2023-03-04T15:44:56.936Z,6.20
2023-03-04T15:47:25.687Z,6.20
2023-03-04T15:49:53.684Z,6.20
2023-03-04T15:52:23.118Z,6.20
2023-03-04T15:54:52.819Z,6.20
2023-03-04T15:57:26.416Z,6.10
2023-03-04T15:59:54.970Z,6.10
2023-03-04T16:02:25.157Z,6.10
2023-03-04T16:04:53.123Z,6.10
2023-03-04T16:07:23.560Z,6.00
2023-03-04T16:09:56.531Z,6.10
2023-03-04T16:12:27.689Z,6.10
2023-03-04T16:14:55.929Z,6.10
2023-03-04T16:17:23.939Z,6.10
2023-03-04T16:19:52.010Z,6.10
2023-03-04T16:22:24.112Z,6.00
2023-03-04T16:24:54.770Z,6.00
2023-03-04T16:27:24.450Z,6.00
2023-03-04T16:29:52.395Z,6.00
2023-03-04T16:32:20.409Z,6.00
2023-03-04T16:34:50.359Z,6.00
2023-03-04T16:37:21.213Z,6.00
2023-03-04T16:39:49.640Z,6.00
2023-03-04T16:42:22.017Z,5.90
2023-03-04T16:44:50.593Z,5.90
2023-03-04T16:47:18.586Z,5.90
2023-03-04T16:49:48.013Z,5.80
2023-03-04T16:52:23.493Z,5.80
2023-03-04T16:54:51.506Z,5.80
2023-03-04T16:57:21.110Z,5.80
2023-03-04T16:59:49.293Z,5.80
2023-03-04T17:02:18.840Z,5.80
2023-03-04T17:04:49.953Z,5.80
2023-03-04T17:07:18.371Z,5.70
2023-03-04T17:09:46.354Z,5.70
2023-03-04T17:12:14.368Z,5.70
2023-03-04T17:14:43.672Z,5.70
2023-03-04T17:17:11.902Z,5.60
2023-03-04T17:19:39.896Z,5.60
2023-03-04T17:22:08.106Z,5.60
2023-03-04T17:24:36.044Z,5.60
2023-03-04T17:27:04.038Z,5.50
2023-03-04T17:29:32.011Z,5.50
2023-03-04T17:32:01.383Z,5.50
2023-03-04T17:34:29.373Z,5.50
2023-03-04T17:36:57.383Z,5.50
2023-03-04T17:39:25.858Z,5.50
2023-03-04T17:41:54.439Z,5.40
2023-03-04T17:44:22.480Z,5.40
2023-03-04T17:46:50.943Z,5.40
2023-03-04T17:49:20.399Z,5.30
2023-03-04T17:51:48.333Z,5.30
2023-03-04T17:54:16.538Z,5.30
2023-03-04T17:56:44.574Z,5.30
2023-03-04T17:59:15.196Z,5.30
2023-03-04T18:01:45.047Z,5.30
2023-03-04T18:04:13.973Z,5.30
2023-03-04T18:06:44.098Z,5.20
2023-03-04T18:09:12.080Z,5.20
2023-03-04T18:11:41.579Z,5.20
2023-03-04T18:14:12.206Z,5.20
2023-03-04T18:16:40.854Z,5.10
2023-03-04T18:19:09.403Z,5.10
2023-03-04T18:21:37.468Z,5.10
2023-03-04T18:24:07.448Z,5.20
2023-03-04T18:26:35.564Z,5.10
2023-03-04T18:29:03.512Z,5.10
2023-03-04T18:31:32.828Z,5.10
2023-03-04T18:34:01.831Z,5.10
2023-03-04T18:36:29.978Z,5.10
2023-03-04T18:38:59.474Z,5.10
2023-03-04T18:41:29.019Z,5.00
2023-03-04T18:43:57.361Z,5.00
2023-03-04T18:46:35.605Z,5.10
2023-03-04T18:49:05.271Z,5.10
2023-03-04T18:51:33.353Z,5.00
2023-03-04T18:54:01.314Z,5.00
2023-03-04T18:56:38.099Z,5.00
2023-03-04T18:59:10.665Z,5.00
2023-03-04T19:01:38.809Z,5.00
2023-03-04T19:04:07.314Z,5.00
2023-03-04T19:06:36.258Z,4.90
2023-03-04T19:09:05.830Z,4.90
2023-03-04T19:11:35.286Z,4.90
2023-03-04T19:14:03.418Z,4.90
2023-03-04T19:16:31.431Z,4.90
2023-03-04T19:18:59.556Z,4.90
2023-03-04T19:21:27.526Z,4.90
2023-03-04T19:23:55.546Z,4.90
2023-03-04T19:26:23.656Z,4.90
2023-03-04T19:28:52.979Z,4.80
2023-03-04T19:31:21.092Z,4.80
2023-03-04T19:33:49.183Z,4.80
2023-03-04T19:36:17.149Z,4.80
2023-03-04T19:38:45.137Z,4.70
2023-03-04T19:41:14.729Z,4.70
2023-03-04T19:43:42.882Z,4.80
2023-03-04T19:46:12.778Z,4.80
2023-03-04T19:48:41.870Z,4.70
2023-03-04T19:51:15.832Z,4.70
2023-03-04T19:53:43.871Z,4.70
2023-03-04T19:56:11.919Z,4.70
2023-03-04T19:58:39.979Z,4.70
2023-03-04T20:01:08.062Z,4.70
2023-03-04T20:03:37.438Z,4.70
2023-03-04T20:06:07.489Z,4.70
2023-03-04T20:08:38.246Z,4.70
2023-03-04T20:11:08.209Z,4.70
2023-03-04T20:13:36.213Z,4.70
2023-03-04T20:16:08.719Z,4.70
2023-03-04T20:18:38.433Z,4.70
2023-03-04T20:21:07.209Z,4.70
2023-03-04T20:23:35.710Z,4.70
2023-03-04T20:26:04.429Z,4.70
2023-03-04T20:28:32.978Z,4.70
2023-03-04T20:31:18.504Z,4.70
2023-03-04T20:33:49.617Z,4.70
2023-03-04T20:36:17.606Z,4.70
2023-03-04T20:38:46.039Z,4.60
2023-03-04T20:41:14.577Z,4.60
2023-03-04T20:43:42.711Z,4.60
2023-03-04T20:46:27.917Z,4.60
2023-03-04T20:48:59.485Z,4.60
2023-03-04T20:51:27.730Z,4.60
2023-03-04T20:53:56.503Z,4.60
2023-03-04T20:56:25.268Z,4.60
2023-03-04T20:58:54.681Z,4.60
2023-03-04T21:01:23.109Z,4.50
2023-03-04T21:03:51.126Z,4.50
2023-03-04T21:06:20.618Z,4.50
2023-03-04T21:08:48.694Z,4.50
2023-03-04T21:11:18.059Z,4.50
2023-03-04T21:13:46.236Z,4.50
2023-03-04T21:16:15.215Z,4.50
2023-03-04T21:18:44.275Z,4.50
2023-03-04T21:21:15.468Z,4.50
2023-03-04T21:23:46.687Z,4.50
2023-03-04T21:26:14.774Z,4.50
2023-03-04T21:28:43.540Z,4.50
2023-03-04T21:31:16.060Z,4.40
2023-03-04T21:33:44.319Z,4.40
2023-03-04T21:36:13.860Z,4.40
2023-03-04T21:38:42.617Z,4.40
2023-03-04T21:41:14.272Z,4.40
2023-03-04T21:43:42.860Z,4.40
2023-03-04T21:46:11.498Z,4.40
2023-03-04T21:48:39.586Z,4.40
2023-03-04T21:51:08.980Z,4.40
2023-03-04T21:53:37.273Z,4.40
2023-03-04T21:56:06.523Z,4.40
2023-03-04T21:58:41.398Z,4.40
2023-03-04T22:01:13.508Z,4.40
2023-03-04T22:03:41.762Z,4.40
2023-03-04T22:06:11.451Z,4.40
2023-03-04T22:08:39.957Z,4.30
2023-03-04T22:11:09.953Z,4.40
2023-03-04T22:13:39.507Z,4.40
2023-03-04T22:16:08.422Z,4.40
2023-03-04T22:18:38.459Z,4.40
2023-03-04T22:21:09.892Z,4.40
2023-03-04T22:23:38.393Z,4.40
2023-03-04T22:26:07.591Z,4.40
2023-03-04T22:28:35.801Z,4.40
2023-03-04T22:31:14.855Z,4.30
2023-03-04T22:33:42.985Z,4.30
2023-03-04T22:36:11.223Z,4.30
2023-03-04T22:38:39.294Z,4.30
2023-03-04T22:41:13.761Z,4.30
2023-03-04T22:43:41.843Z,4.30
2023-03-04T22:46:14.915Z,4.20
2023-03-04T22:48:43.053Z,4.20
2023-03-04T22:51:11.471Z,4.20
2023-03-04T22:53:40.102Z,4.20
2023-03-04T22:56:08.667Z,4.20
2023-03-04T22:58:36.816Z,4.30
2023-03-04T23:01:05.963Z,4.30
2023-03-04T23:03:36.079Z,4.30
2023-03-04T23:06:06.323Z,4.20
2023-03-04T23:08:35.040Z,4.20
2023-03-04T23:11:03.112Z,4.20
2023-03-04T23:13:33.603Z,4.20
2023-03-04T23:16:03.024Z,4.20
2023-03-04T23:18:31.779Z,4.20
2023-03-04T23:21:05.368Z,4.20
2023-03-04T23:23:33.393Z,4.20
2023-03-04T23:26:01.605Z,4.10
2023-03-04T23:28:29.790Z,4.20
2023-03-04T23:30:57.922Z,4.20
2023-03-04T23:33:26.187Z,4.20
2023-03-04T23:35:54.249Z,4.20
2023-03-04T23:38:23.618Z,4.20
2023-03-04T23:40:51.603Z,4.20
2023-03-04T23:43:19.629Z,4.20
2023-03-04T23:45:47.686Z,4.20
2023-03-04T23:48:15.699Z,4.20
2023-03-04T23:50:43.686Z,4.20
2023-03-04T23:53:11.653Z,4.20
2023-03-04T23:55:43.077Z,4.10
2023-03-04T23:58:11.111Z,4.10
